Airfield :
LOGIN :

Register | Disclaimer

   EN    FR    IT 

 










Legend :    VFR   Marginal VFR   IFR   Intensive IFR   Very Intensive IFR
Visi :
Ceiling :
>= 8 km
>= 3000ft
5 to 8 km
1000 to 3000 ft
1500m to 5 km
500 to 1000 ft
800 to 1500m
200 to 500 ft
< 800m
< 200 ft
Symbols :   Thunderstorms  Fog  Heavy snow  Heavy precipitations  Wind > 20 kt
SIGMETs :     Misc.  Thunderstorms  Icing  Turbulence  Mountain Waves  Volcanic Ashes






- Airport Elevation : 468 ft
- IATA code : GRO


LEGE - Girona Costa Brava

CURRENT METAR :
  • 232030Z 03006KT 360V070 9999 FEW074 19/13 Q1018

EXPIRED METARs :
  • 232000Z 16005KT 120V190 9999 FEW068 20/13 Q1017
  • 231930Z 18007KT 9999 FEW064 21/13 Q1017
  • 231900Z 16007KT 9999 FEW064 22/13 Q1017
  • 231830Z 17008KT 140V200 9999 VCSH FEW052TCU SCT066 23/13 Q1016
  • 231800Z 16005KT 120V200 9999 FEW044 FEW056TCU 23/13 Q1016

TAF TAF LEGE
Valid from the 23 at 18:00 until the 24 at 18:00 UTC


231700Z 2318/2418 22008KT 9999 FEW050 TX27/2413Z TN14/2406Z
BECMG 2319/2321 VRB03KT
BECMG 2407/2409 16010KT



MET'MAP, your aeronautical weather chart ! - Copyright ORBIFLY December 2007 - Disclaimer

ORBIFLY MET'MAP TEAM :

Programming & Development : Alexandra Zaïnal
Concept & original design : Baudouin d'Aumeries
Assistance for programming : Marc-Olivier Méhu
Technical & hardware support : Manuel Goepfert

Contact : metmap@orbifly.com




SOURCES & CREDITS :

   NOAA